Aérodrome :
LOGIN :

S'inscrire | Disclaimer

   EN    FR    IT 

 










Légende :    VFR   VFR Marginal   IFR   IFR Intensif   IFR Très Intensif
Visi : 
Plafond : 
>= 8 km
>= 3000ft
5 à 8 km
1000 à 3000 ft
1500m à 5 km
500 à 1000 ft
800 à 1500m
200 à 500 ft
< 800m
< 200 ft
Symboles :   Orages  Brouillard  Fortes neiges  Fortes précipitations  Vent > 20 kt
SIGMETs :   Divers  Orages  Givrage  Turbulence  Onde Orograph.  Cendres Volcan.







- Altitude de l'aérodrome : 364 ft
- Voir les cartes d'approche


LFAQ - Albert Bray

DERNIER METAR :
  • 181130Z AUTO 03014G26KT 010V080 CAVOK 18/06 Q1027 NOSIG

METARs EXPIRÉS :
  • 181100Z AUTO 05012KT 020V080 9999 FEW045 SCT200 17/05 Q1028 NOSIG
  • 181030Z AUTO 06012KT 010V090 9999 FEW040 16/05 Q1028 NOSIG
  • 181000Z AUTO 06014KT 9999 FEW040 16/05 Q1028 NOSIG
  • 180930Z AUTO 06012KT 9999 FEW034 16/06 Q1028 NOSIG
  • 180900Z AUTO 07012KT CAVOK 15/07 Q1028 NOSIG
  • 180830Z AUTO 07010KT CAVOK 15/07 Q1028 NOSIG

TAF TAF LFAQ
Valide du 18 à 09h jusqu'au 18 à 18h UTC


180800Z 1809/1818 04010KT CAVOK
Pas de NOTAMs connus pour ce terrain.



MET'MAP, la Météo Aéronautique d'un coup d'oeil ! - Copyright ORBIFLY Décembre 2007 - Disclaimer

ORBIFLY MET'MAP TEAM :

Programmation & Développement : Alexandra Zaïnal
Conception & Développement : Baudouin d'Aumeries
Co-Programmation & Développement : Marc-Olivier Méhu
Soutien technique & logistique : Manuel Goepfert

Contact : metmap@orbifly.com




SOURCES & CREDITS :

   NOAA